Hauptseite
METAR-TAF:

METAR-TAF

Flughäfen :

Flughafen Bahrain

Bahrain, Bahrain

Breite: 26-16N, Länge: 050-39E, Höhe: 2 m

Beobachtung

Neuester Wetterbericht von vor 22 Minuten, um 05:00 UTC
Wind 7 kt aus Süd, variierte zwischen Ost/Südost und Südwest
Temperatur 30°C
Luftfeuchtigkeit 38%
Luftdruck 1009 hPa
Sichtweite 10 km oder mehr
keine Wolken unter 1500 m und keine Kumulonimbus oder Gewitterwolken

METAR: OBBI 190500Z 17007KT 120V220 CAVOK 30/14 Q1009 NOSIG

Zeit: 08:22 (05:22 UTC)

Prognose

Neuester Wetterbericht von vor 6 Stunden und 22 Minuten, um 23:00 UTC
Gültige Prognose vom 19 um 00 UTC bis 20 um 06 UTC
Wind 12 kt aus Südost
Sichtweite 10 km oder mehr
keine Wolken unter 1500 m und keine Kumulonimbus oder Gewitterwolken
Übergehend zu
vom 19 um 14 UTC bis 19 um 16 UTC
Wind 10 kt aus Nordost

TAF: OBBI 182300Z 1900/2006 13012KT CAVOK BECMG 1914/1916 04010KT

Wetterbeobachtungen und Prognosen von mehr als 4000 Flughäfen (METAR und TAF Bericht).

Die verfügbaren Stationen werden durch gelbe und rote Markierungen auf der Karte dargestellt.

Führen Sie die Maus auf sie, um den Namen der Station zu sehen.

Darauf klicken, um die Beobachtung von Wetterbeobachtungen und Prognosen zu sehen.

Um die Karte zu ändern : klicken Sie auf den grünen Tasten mit einem schwarzen Kreuz Zum Vergrößern, auf den grünen Button mit einem Gedankenstrich zu verkleinern, oder auf die grünen Pfeile für benachbarte Karten.


METAR-TAF: